Time;durP1;ratioP1;P1;durP2;ratioP2;P2;SDS_P1;SDS_P2;PMS_P1;PMS_P2;Temp;Humidity;BMP_temperature;BMP_pressure;BME280_temperature;BME280_humidity;BME280_pressure;Samples;Min_cycle;Max_cycle;Signal;HPM_P1;HPM_P2
2023/01/21 07:01:20;;;;;;;45.13;29.02;;;;;;;-145.79;75.67;80647.06;5322398;27;20343;-67
2023/01/21 07:03:52;;;;;;;45.40;31.52;;;;;;;-145.79;76.34;80642.84;5300145;28;20426;-67
2023/01/21 07:06:24;;;;;;;44.90;29.63;;;;;;;-145.79;76.76;80655.56;5300751;28;20497;-68
2023/01/21 07:08:55;;;;;;;45.85;31.20;;;;;;;-145.79;77.28;80642.84;5300154;28;20025;-67
2023/01/21 07:11:27;;;;;;;48.67;31.10;;;;;;;-145.79;77.29;80623.75;5300035;28;20027;-68
2023/01/21 07:13:58;;;;;;;48.47;30.83;;;;;;;-145.79;76.64;80651.31;5290575;28;20123;-68
2023/01/21 07:16:29;;;;;;;39.28;28.30;;;;;;;-145.79;76.53;80651.31;5300013;28;20176;-66
2023/01/21 07:19:01;;;;;;;45.10;29.65;;;;;;;-145.79;76.34;80655.56;5298364;28;20056;-67
2023/01/21 07:21:32;;;;;;;46.72;31.40;;;;;;;-145.79;76.54;80668.28;5300952;28;20033;-67
2023/01/21 07:24:06;;;;;;;45.42;30.65;;;;;;;-145.79;76.72;80659.81;5300048;28;20032;-67
2023/01/21 07:26:37;;;;;;;48.83;30.25;;;;;;;-145.79;77.12;80651.31;5300659;28;20036;-67
2023/01/21 07:29:09;;;;;;;48.67;31.25;;;;;;;-145.79;76.75;80647.06;5300352;28;20031;-67
2023/01/21 07:31:40;;;;;;;44.97;28.85;;;;;;;-145.79;76.43;80661.94;5282656;28;20120;-67
2023/01/21 07:34:11;;;;;;;48.90;30.80;;;;;;;-145.79;76.39;80670.41;5280091;28;20052;-68
2023/01/21 07:36:43;;;;;;;46.40;29.83;;;;;;;-145.79;76.29;80670.41;5278848;28;20025;-68
2023/01/21 07:39:16;;;;;;;43.67;27.55;;;;;;;-145.79;76.85;80668.28;5278824;28;20487;-67
2023/01/21 07:41:48;;;;;;;39.28;28.58;;;;;;;-145.79;76.59;80668.28;5279410;28;20024;-68
2023/01/21 07:44:19;;;;;;;43.53;29.45;;;;;;;-145.79;76.96;80668.28;5299441;28;20528;-68
2023/01/21 07:46:50;;;;;;;43.60;28.75;;;;;;;-145.79;76.33;80683.16;5297849;28;20542;-68
2023/01/21 07:49:22;;;;;;;42.33;27.90;;;;;;;-145.79;76.62;80672.53;5278657;28;20094;-68
2023/01/21 07:51:56;;;;;;;40.30;28.30;;;;;;;-145.79;76.28;80683.16;5278529;28;20079;-68
2023/01/21 07:54:27;;;;;;;46.92;29.33;;;;;;;-145.79;76.27;80685.25;5278596;28;20035;-68
2023/01/21 07:56:59;;;;;;;44.40;28.98;;;;;;;-145.79;76.53;80685.25;5279155;28;20100;-67
2023/01/21 07:59:30;;;;;;;44.90;29.38;;;;;;;-145.79;76.78;80685.25;5283442;28;20055;-67
2023/01/21 08:02:01;;;;;;;43.75;27.73;;;;;;;-145.79;77.01;80674.66;5299905;28;20043;-67
2023/01/21 08:04:33;;;;;;;39.92;24.17;;;;;;;-145.79;83.40;80557.97;5312933;28;20378;-68
2023/01/21 08:07:08;;;;;;;52.00;31.17;;;;;;;-145.79;81.23;80628.00;5315224;28;20028;-68
2023/01/21 08:09:39;;;;;;;44.55;30.45;;;;;;;-145.79;78.57;80621.63;5321098;28;20390;-69
2023/01/21 08:12:11;;;;;;;42.42;28.70;;;;;;;-145.79;76.72;80642.84;5307411;28;20438;-68
2023/01/21 08:14:45;;;;;;;59.78;41.92;;;;;;;-145.79;76.29;80651.31;5306261;28;20058;-69
2023/01/21 08:17:16;;;;;;;43.25;30.05;;;;;;;-145.79;76.04;80668.28;5289236;28;20040;-69
2023/01/21 08:19:48;;;;;;;52.65;33.45;;;;;;;-145.79;76.75;80672.53;5284342;28;20359;-69
2023/01/21 08:22:19;;;;;;;47.92;30.38;;;;;;;-145.79;76.92;80683.16;5285643;28;20025;-66
2023/01/21 08:24:51;;;;;;;48.38;32.60;;;;;;;-145.79;76.89;80685.25;5294900;28;20478;-68
2023/01/21 08:27:22;;;;;;;48.13;30.75;;;;;;;-145.79;76.92;80691.63;5305797;28;20107;-67
2023/01/21 08:29:53;;;;;;;50.55;32.08;;;;;;;-145.79;77.59;80676.78;5299351;28;20043;-67
2023/01/21 08:32:24;;;;;;;50.20;31.65;;;;;;;-145.79;77.29;80681.03;5305839;28;20020;-67
2023/01/21 08:34:56;;;;;;;45.90;32.30;;;;;;;-145.79;77.97;80674.66;5305162;28;20491;-67
2023/01/21 08:37:27;;;;;;;52.33;34.05;;;;;;;-145.79;77.27;80691.63;5306006;28;20020;-68
2023/01/21 08:40:01;;;;;;;53.25;33.40;;;;;;;-145.79;77.78;80685.25;5286291;28;20029;-68
2023/01/21 08:42:33;;;;;;;53.60;33.45;;;;;;;-145.79;78.13;80689.50;5303355;28;20032;-68
2023/01/21 08:45:05;;;;;;;51.78;33.38;;;;;;;-145.79;77.65;80714.97;5306149;28;20099;-68
2023/01/21 08:47:36;;;;;;;53.38;33.85;;;;;;;-145.79;78.63;80693.75;5305295;28;20031;-69
2023/01/21 08:50:12;;;;;;;54.13;34.03;;;;;;;-145.79;79.15;80685.25;5305354;28;20020;-68
2023/01/21 08:52:50;;;;;;;58.00;35.67;;;;;;;-145.79;78.82;80681.03;5305918;28;20040;-69
2023/01/21 08:55:26;;;;;;;57.00;36.15;;;;;;;-145.79;78.70;80689.50;5303997;28;20028;-67
2023/01/21 08:57:58;;;;;;;53.33;34.50;;;;;;;-145.79;78.04;80700.13;5297314;28;20024;-64
2023/01/21 09:00:32;;;;;;;50.90;33.67;;;;;;;-145.79;79.06;80693.75;5284080;28;20048;-68
2023/01/21 09:03:03;;;;;;;55.35;34.42;;;;;;;-145.79;79.23;80687.38;5287646;28;20028;-67
2023/01/21 09:05:35;;;;;;;50.28;33.28;;;;;;;-145.79;78.68;80698.00;5284041;28;20066;-67
2023/01/21 09:08:06;;;;;;;53.80;34.38;;;;;;;-145.79;79.71;80689.50;5295819;28;20039;-70
2023/01/21 09:13:36;;;;;;;54.40;32.30;;;;;;;-145.79;79.21;80695.88;5299441;28;20114;-67
2023/01/21 09:16:09;;;;;;;55.95;35.75;;;;;;;-145.79;79.34;80698.00;5304960;28;20485;-69
2023/01/21 09:18:41;;;;;;;55.35;34.97;;;;;;;-145.79;79.71;80704.34;5304820;28;20382;-69
2023/01/21 09:21:13;;;;;;;54.60;34.35;;;;;;;-145.79;79.43;80702.22;5296964;28;20467;-69
2023/01/21 09:23:44;;;;;;;49.72;32.65;;;;;;;-145.79;79.52;80676.78;5282196;28;20032;-69
2023/01/21 09:26:23;;;;;;;55.28;34.17;;;;;;;-145.79;79.07;80693.75;5283943;28;20027;-69
2023/01/21 09:28:57;;;;;;;52.17;34.28;;;;;;;-145.79;79.44;80683.16;5294448;28;20385;-69
2023/01/21 09:31:29;;;;;;;55.13;32.67;;;;;;;-145.79;79.36;80678.91;5283191;28;20017;-69
2023/01/21 09:34:04;;;;;;;56.13;33.72;;;;;;;-145.79;79.43;80661.94;5283624;28;20094;-71
2023/01/21 09:36:37;;;;;;;55.85;33.03;;;;;;;-145.79;79.68;80661.94;5283920;28;20592;-71
2023/01/21 09:39:08;;;;;;;52.30;32.88;;;;;;;-145.79;79.30;80674.66;5283188;28;20089;-71
2023/01/21 09:41:53;;;;;;;50.75;31.02;;;;;;;-145.79;79.31;80676.78;5283628;28;20024;-71
2023/01/21 09:44:43;;;;;;;54.05;33.22;;;;;;;-145.79;79.31;80685.25;5283118;28;20418;-70
2023/01/21 09:47:30;;;;;;;56.13;35.05;;;;;;;-145.79;79.34;80681.03;5296620;28;20106;-71
2023/01/21 09:50:13;;;;;;;48.20;30.80;;;;;;;-145.79;79.07;80691.63;5304487;28;20028;-70
2023/01/21 09:52:47;;;;;;;56.15;31.65;;;;;;;-145.79;79.22;80681.03;5303889;28;20535;-69
2023/01/21 09:55:27;;;;;;;55.55;33.13;;;;;;;-145.79;78.57;80717.09;5304575;28;20032;-69
2023/01/21 09:58:38;;;;;;;55.97;34.13;;;;;;;-145.79;80.38;80683.16;5304235;28;20107;-67
2023/01/21 10:01:20;;;;;;;57.33;33.63;;;;;;;-145.79;79.53;80698.00;5282621;28;20044;-66
2023/01/21 10:04:30;;;;;;;53.13;32.42;;;;;;;-145.79;79.26;80685.25;5292567;28;20035;-67
2023/01/21 10:07:16;;;;;;;51.90;32.35;;;;;;;-145.79;79.00;80693.75;5278124;28;20024;-67
2023/01/21 10:10:41;;;;;;;52.85;31.80;;;;;;;-145.79;79.50;80693.75;5304096;28;20034;-67
2023/01/21 10:13:30;;;;;;;52.05;31.58;;;;;;;-145.79;79.04;80708.59;5299240;28;20040;-68
2023/01/21 10:16:35;;;;;;;59.22;33.45;;;;;;;-145.79;79.84;80693.75;5304275;28;20463;-68
2023/01/21 10:19:16;;;;;;;58.67;32.50;;;;;;;-145.79;78.99;80693.75;5303667;28;20473;-67
2023/01/21 10:21:59;;;;;;;54.65;32.22;;;;;;;-145.79;79.21;80710.72;5286589;28;20480;-69
2023/01/21 10:24:37;;;;;;;52.67;33.08;;;;;;;-145.79;79.29;80708.59;5295216;28;20028;-69
2023/01/21 10:27:17;;;;;;;58.92;33.67;;;;;;;-145.79;79.00;80698.00;5302924;28;20024;-68
2023/01/21 10:29:54;;;;;;;60.33;35.10;;;;;;;-145.79;78.94;80702.22;5303804;28;20118;-68
2023/01/21 10:32:26;;;;;;;60.15;33.85;;;;;;;-145.79;79.45;80706.47;5302839;28;20058;-69
2023/01/21 10:34:59;;;;;;;59.72;34.78;;;;;;;-145.79;78.87;80721.31;5302515;28;20530;-69
2023/01/21 10:37:47;;;;;;;59.97;36.92;;;;;;;-145.79;79.66;80706.47;5294506;28;20029;-69
2023/01/21 10:40:42;;;;;;;65.80;35.78;;;;;;;-145.79;79.50;80685.25;5281004;28;20455;-69
2023/01/21 10:43:40;;;;;;;60.58;34.33;;;;;;;-145.79;79.18;80659.81;5280114;28;20025;-68
2023/01/21 10:46:16;;;;;;;67.05;35.95;;;;;;;-145.79;78.73;80668.28;5285301;28;20040;-68
2023/01/21 10:48:55;;;;;;;56.53;33.63;;;;;;;-145.79;78.86;80659.81;5301088;28;20031;-68
2023/01/21 10:51:29;;;;;;;55.92;33.33;;;;;;;-145.79;79.34;80642.84;5287482;28;20024;-69
2023/01/21 10:54:19;;;;;;;56.95;32.63;;;;;;;-145.79;79.43;80640.72;5282727;28;20064;-69
2023/01/21 10:56:55;;;;;;;57.83;34.08;;;;;;;-145.79;79.08;80640.72;5302829;28;20057;-68
2023/01/21 10:59:31;;;;;;;59.97;35.03;;;;;;;-145.79;79.32;80623.75;5301118;28;20044;-68
2023/01/21 11:02:26;;;;;;;65.80;35.92;;;;;;;-145.79;78.86;80600.41;5302124;28;20390;-69
2023/01/21 11:05:03;;;;;;;59.78;34.42;;;;;;;-145.79;78.67;80598.28;5303531;28;20028;-67
2023/01/21 11:07:41;;;;;;;62.05;34.80;;;;;;;-145.79;77.94;80602.53;5302872;28;20428;-69
2023/01/21 11:10:19;;;;;;;59.58;35.05;;;;;;;-145.79;78.67;80579.19;5286454;28;20086;-69
2023/01/21 11:12:52;;;;;;;57.83;33.28;;;;;;;-145.79;77.99;80581.31;5300454;28;20020;-69
2023/01/21 11:15:26;;;;;;;61.00;35.10;;;;;;;-145.79;77.79;80566.47;5300922;28;20095;-68
2023/01/21 11:17:58;;;;;;;55.58;31.83;;;;;;;-145.79;77.10;80568.59;5303346;28;20024;-68
2023/01/21 11:20:37;;;;;;;57.58;32.85;;;;;;;-145.79;77.07;80568.59;5302403;28;20498;-68
2023/01/21 11:23:25;;;;;;;53.95;33.13;;;;;;;-145.79;77.69;80557.97;5302449;28;20028;-69
2023/01/21 11:26:15;;;;;;;53.72;32.80;;;;;;;-145.79;77.43;80543.13;5303327;28;20036;-68
2023/01/21 11:28:46;;;;;;;56.05;34.78;;;;;;;-145.79;76.70;80547.38;5295841;28;20372;-68
2023/01/21 11:31:25;;;;;;;53.53;30.92;;;;;;;-145.79;76.64;80532.53;5280599;28;20036;-68
2023/01/21 11:34:04;;;;;;;52.13;32.15;;;;;;;-145.79;76.50;80511.31;5282178;28;20020;-68
2023/01/21 11:36:35;;;;;;;52.28;30.98;;;;;;;-145.79;76.16;80511.31;5281381;28;20063;-68
2023/01/21 11:39:13;;;;;;;59.08;36.17;;;;;;;-145.79;75.65;80528.28;5281660;28;20131;-67
2023/01/21 11:41:56;;;;;;;53.33;33.50;;;;;;;-145.79;76.36;80490.09;5285152;28;20395;-67
2023/01/21 11:44:27;;;;;;;73.68;46.33;;;;;;;-145.79;75.74;80487.97;5300746;28;20058;-67
2023/01/21 11:46:58;;;;;;;52.17;32.03;;;;;;;-145.79;75.45;80473.13;5284356;28;20020;-67
2023/01/21 11:49:31;;;;;;;50.60;30.30;;;;;;;-145.79;76.69;80447.69;5285459;28;20110;-69
2023/01/21 11:52:17;;;;;;;48.00;29.38;;;;;;;-145.79;81.35;80396.75;5284487;28;20098;-67
2023/01/21 11:54:48;;;;;;;52.80;31.88;;;;;;;-145.79;76.66;80468.88;5285661;28;20036;-66
2023/01/21 11:57:28;;;;;;;47.65;29.20;;;;;;;-145.79;75.23;80451.91;5285734;28;20024;-66
2023/01/21 12:00:17;;;;;;;51.28;31.55;;;;;;;-145.79;74.99;80454.03;5288147;28;20392;-67
2023/01/21 12:02:56;;;;;;;48.42;29.38;;;;;;;-145.79;74.33;80456.16;5285973;28;20367;-67
2023/01/21 12:05:30;;;;;;;48.67;30.27;;;;;;;-145.79;74.49;80456.16;5284825;28;20115;-67
2023/01/21 12:08:05;;;;;;;49.53;28.90;;;;;;;-145.79;73.67;80454.03;5285139;28;20479;-67
2023/01/21 12:10:41;;;;;;;;;;;;;;;-145.79;74.57;80420.09;5288052;28;20081;-68
2023/01/21 12:13:57;;;;;;;49.88;30.10;;;;;;;-145.79;73.99;80411.63;5300103;28;19946;-66
2023/01/21 12:16:39;;;;;;;51.38;30.35;;;;;;;-145.79;73.26;80428.59;5259871;28;20043;-68
2023/01/21 12:19:34;;;;;;;48.08;30.17;;;;;;;-145.79;73.24;80420.09;5288351;28;20483;-68
2023/01/21 12:22:12;;;;;;;51.72;32.30;;;;;;;-145.79;73.40;80413.75;5305902;28;20441;-67
2023/01/21 12:25:01;;;;;;;46.58;29.58;;;;;;;-145.79;72.68;80401.00;5305671;28;20028;-69
2023/01/21 12:27:55;;;;;;;46.42;30.33;;;;;;;-145.79;72.54;80403.13;5288753;28;20494;-69
2023/01/21 12:30:38;;;;;;;44.55;28.55;;;;;;;-145.79;72.61;80396.75;5299458;28;20039;-68
2023/01/21 12:33:15;;;;;;;44.00;29.75;;;;;;;-145.79;72.56;80388.28;5298155;28;20086;-69
2023/01/21 12:35:51;;;;;;;45.30;31.13;;;;;;;-145.79;72.11;80384.03;5292159;28;20059;-69
2023/01/21 12:38:29;;;;;;;43.90;28.77;;;;;;;-145.79;72.31;80381.91;5305182;28;20024;-70
2023/01/21 12:41:09;;;;;;;46.33;30.10;;;;;;;-145.79;72.00;80373.44;5304917;28;20035;-69
2023/01/21 12:43:51;;;;;;;45.72;29.00;;;;;;;-145.79;72.59;80375.56;5304818;28;20428;-69
2023/01/21 12:46:31;;;;;;;44.22;29.30;;;;;;;-145.79;72.15;80398.88;5283985;28;20079;-69
2023/01/21 12:49:26;;;;;;;41.38;28.02;;;;;;;-145.79;72.89;80388.28;5290045;28;20028;-68
2023/01/21 12:52:03;;;;;;;42.95;29.20;;;;;;;-145.79;72.80;80388.28;5294743;28;20028;-68
2023/01/21 12:54:57;;;;;;;60.05;39.67;;;;;;;-145.79;72.94;80379.78;5301060;28;20413;-67
2023/01/21 12:57:37;;;;;;;46.05;30.90;;;;;;;-145.79;72.37;80396.75;5304945;28;20024;-67
2023/01/21 13:00:34;;;;;;;48.15;31.48;;;;;;;-145.79;72.58;80413.75;5305434;28;20146;-67
2023/01/21 13:03:27;;;;;;;48.17;32.28;;;;;;;-145.79;73.33;80384.03;5300334;28;20043;-70
2023/01/21 13:06:04;;;;;;;44.35;28.20;;;;;;;-145.79;72.78;80396.75;5305181;28;20027;-68
2023/01/21 13:08:35;;;;;;;47.65;30.45;;;;;;;-145.79;72.92;80390.41;5304410;28;20059;-68
2023/01/21 13:11:19;;;;;;;40.63;26.40;;;;;;;-145.79;72.48;80384.03;5292300;28;20044;-69
2023/01/21 13:14:00;;;;;;;42.35;27.55;;;;;;;-145.79;72.78;80379.78;5284830;28;20043;-68
2023/01/21 13:16:38;;;;;;;45.38;27.50;;;;;;;-145.79;73.63;80362.81;5300887;28;20443;-68
2023/01/21 13:19:13;;;;;;;43.88;26.88;;;;;;;-145.79;73.32;80362.81;5301257;28;20043;-69
2023/01/21 13:22:05;;;;;;;40.58;28.02;;;;;;;-145.79;72.10;80384.03;5283144;28;20021;-68
2023/01/21 13:24:52;;;;;;;44.08;32.38;;;;;;;-145.79;72.68;80367.06;5285299;28;20081;-68
2023/01/21 13:27:50;;;;;;;41.75;26.52;;;;;;;-145.79;72.89;80345.84;5296530;28;20431;-67
2023/01/21 13:30:44;;;;;;;66.35;44.08;;;;;;;-145.79;72.56;80347.97;5282442;28;20044;-67
2023/01/21 13:33:24;;;;;;;44.33;29.45;;;;;;;-145.79;72.81;80350.09;5283525;28;20097;-66
2023/01/21 13:36:14;;;;;;;39.00;28.15;;;;;;;-145.79;73.13;80345.84;5283351;28;20046;-66
2023/01/21 13:38:57;;;;;;;41.33;28.55;;;;;;;-145.79;72.89;80345.84;5283536;28;20037;-67
2023/01/21 13:42:01;;;;;;;41.88;27.08;;;;;;;-145.79;72.75;80320.41;5284318;28;20028;-66
2023/01/21 13:44:48;;;;;;;38.22;26.40;;;;;;;-145.79;73.00;80314.03;5272176;28;20046;-67
2023/01/21 13:47:47;;;;;;;51.75;34.38;;;;;;;-145.79;72.64;80316.16;5304484;28;20028;-67
2023/01/21 13:50:46;;;;;;;40.35;27.33;;;;;;;-145.79;72.29;80299.19;5303782;28;20101;-66
2023/01/21 13:53:20;;;;;;;44.05;27.98;;;;;;;-145.79;71.81;80320.41;5304432;28;20028;-66
2023/01/21 13:56:06;;;;;;;45.17;30.60;;;;;;;-145.79;72.09;80273.75;5302281;28;20028;-67
2023/01/21 13:58:46;;;;;;;88.13;60.50;;;;;;;-145.79;70.79;80269.50;5291836;28;20428;-67
2023/01/21 14:01:27;;;;;;;44.63;28.60;;;;;;;-145.79;71.18;80282.22;5298398;28;20052;-67
2023/01/21 14:04:17;;;;;;;38.28;27.70;;;;;;;-145.79;71.07;80282.22;5283379;28;20028;-66
2023/01/21 14:07:00;;;;;;;42.92;27.20;;;;;;;-145.79;71.65;80290.72;5304156;28;20019;-67
2023/01/21 14:09:39;;;;;;;41.75;28.10;;;;;;;-145.79;71.54;80307.69;5303413;28;20032;-67
2023/01/21 14:12:18;;;;;;;40.63;26.52;;;;;;;-145.79;71.62;80311.91;5301478;28;20028;-66
2023/01/21 14:15:14;;;;;;;41.30;26.13;;;;;;;-145.79;72.08;80318.28;5300525;28;20047;-67
2023/01/21 14:17:52;;;;;;;41.60;27.88;;;;;;;-145.79;72.19;80324.66;5300900;28;20030;-68
2023/01/21 14:20:47;;;;;;;37.30;25.33;;;;;;;-145.79;72.23;80320.41;5293725;28;20112;-67
2023/01/21 14:24:00;;;;;;;41.93;27.20;;;;;;;-145.79;72.55;80320.41;5300247;28;20406;-68
2023/01/21 14:26:41;;;;;;;43.15;30.23;;;;;;;-145.79;72.25;80337.38;5256113;28;20123;-68
2023/01/21 14:29:31;;;;;;;37.83;26.00;;;;;;;-145.79;72.67;80337.38;5282270;28;20025;-68
2023/01/21 14:32:13;;;;;;;50.63;36.40;;;;;;;-145.79;72.93;80341.63;5290993;28;20044;-68
2023/01/21 14:34:50;;;;;;;37.65;25.00;;;;;;;-145.79;72.51;80335.25;5282871;28;20021;-68
2023/01/21 14:37:33;;;;;;;33.83;22.48;;;;;;;-145.79;72.59;80324.66;5295481;28;20036;-67
2023/01/21 14:40:30;;;;;;;35.20;22.10;;;;;;;-145.79;71.34;80333.13;5281154;28;20107;-67
2023/01/21 14:43:01;;;;;;;29.08;20.48;;;;;;;-145.79;69.96;80364.94;5276981;28;20048;-68
2023/01/21 14:46:25;;;;;;;29.15;21.20;;;;;;;-145.79;70.47;80339.50;5297396;28;20103;-68
2023/01/21 14:49:10;;;;;;;29.48;18.48;;;;;;;-145.79;70.09;80352.22;5269476;28;20547;-67
2023/01/21 14:51:46;;;;;;;29.63;19.40;;;;;;;-145.79;70.02;80367.06;5285886;28;20035;-67
2023/01/21 14:54:24;;;;;;;27.40;20.42;;;;;;;-145.79;70.43;80358.59;5297309;28;20093;-68
2023/01/21 14:57:00;;;;;;;29.67;21.67;;;;;;;-145.79;71.49;80337.38;5293157;28;20089;-66
2023/01/21 15:00:07;;;;;;;27.17;19.27;;;;;;;-145.79;75.49;80297.06;5296388;28;20075;-71
2023/01/21 15:02:45;;;;;;;29.35;19.65;;;;;;;-145.79;71.32;80339.50;5267881;28;20091;-69
2023/01/21 15:05:26;;;;;;;28.13;20.02;;;;;;;-145.79;70.74;80326.75;5261552;28;20029;-67
2023/01/21 15:08:24;;;;;;;28.52;21.27;;;;;;;-145.79;70.19;80345.84;5260609;28;20021;-68
2023/01/21 15:11:05;;;;;;;31.08;21.65;;;;;;;-145.79;70.13;80356.47;5280264;28;20029;-68
2023/01/21 15:13:38;;;;;;;29.45;21.65;;;;;;;-145.79;70.59;80375.56;5280162;28;20051;-66
2023/01/21 15:16:36;;;;;;;73.18;53.08;;;;;;;-145.79;70.89;80358.59;5260260;28;20013;-66
2023/01/21 15:19:07;;;;;;;28.95;20.13;;;;;;;-145.79;70.30;80362.81;5261479;28;20052;-66
2023/01/21 15:22:17;;;;;;;28.02;19.83;;;;;;;-145.79;70.02;80371.31;5281844;28;20071;-67
2023/01/21 15:25:22;;;;;;;27.00;20.88;;;;;;;-145.79;70.55;80384.03;5286262;28;20483;-67
2023/01/21 15:28:20;;;;;;;29.77;20.65;;;;;;;-145.79;71.14;80379.78;5283685;28;20451;-67
2023/01/21 15:31:01;;;;;;;32.67;21.33;;;;;;;-145.79;70.64;80369.19;5253283;28;20529;-68
2023/01/21 15:33:41;;;;;;;28.55;19.65;;;;;;;-145.79;71.16;80384.03;5266368;28;20028;-67
2023/01/21 15:36:19;;;;;;;29.05;20.90;;;;;;;-145.79;70.46;80384.03;5264268;28;20029;-67
2023/01/21 15:39:32;;;;;;;26.83;20.13;;;;;;;-145.79;70.44;80373.44;5265382;28;20032;-67
2023/01/21 15:42:41;;;;;;;29.23;21.13;;;;;;;-145.79;70.87;80384.03;5264921;28;20388;-67
2023/01/21 15:45:47;;;;;;;50.75;40.20;;;;;;;-145.79;71.03;80384.03;5264634;28;20021;-67
2023/01/21 15:48:40;;;;;;;25.02;18.85;;;;;;;-145.79;74.62;80341.63;5264867;28;20160;-68
2023/01/21 15:51:49;;;;;;;28.65;19.92;;;;;;;-145.79;71.33;80367.06;5264014;28;20041;-67
2023/01/21 15:54:31;;;;;;;31.98;22.15;;;;;;;-145.79;70.80;80388.28;5264257;28;20496;-68
2023/01/21 15:57:23;;;;;;;34.60;23.35;;;;;;;-145.79;69.58;80403.13;5264835;28;20040;-68
2023/01/21 16:00:07;;;;;;;26.80;18.35;;;;;;;-145.79;77.74;80303.44;5264029;28;20028;-66
2023/01/21 16:02:53;;;;;;;28.83;22.25;;;;;;;-145.79;72.16;80354.34;5287032;28;20104;-67
2023/01/21 16:05:57;;;;;;;39.95;30.23;;;;;;;-145.79;69.87;80375.56;5296939;28;20032;-68
2023/01/21 16:08:32;;;;;;;28.63;20.88;;;;;;;-145.79;69.72;80398.88;5299568;28;20062;-68
2023/01/21 16:11:24;;;;;;;31.58;25.40;;;;;;;-145.79;69.52;80388.28;5302129;28;20119;-67
2023/01/21 16:14:14;;;;;;;27.25;21.65;;;;;;;-145.79;69.87;80388.28;5289413;28;20032;-69
2023/01/21 16:17:22;;;;;;;25.33;20.10;;;;;;;-145.79;70.03;80375.56;5288020;28;20459;-69
2023/01/21 16:19:55;;;;;;;23.33;17.38;;;;;;;-145.79;68.51;80401.00;5291044;28;20074;-69
2023/01/21 16:22:31;;;;;;;23.95;18.75;;;;;;;-145.79;68.78;80415.84;5301552;28;20036;-68
2023/01/21 16:25:13;;;;;;;24.25;18.73;;;;;;;-145.79;69.52;80413.75;5293160;28;20380;-69
2023/01/21 16:27:46;;;;;;;25.70;19.38;;;;;;;-145.79;68.34;80434.94;5297391;28;20036;-68
2023/01/21 16:30:35;;;;;;;35.08;23.98;;;;;;;-145.79;69.31;80405.25;5296045;28;20056;-68
